createdAt,value
2018-04-29T00:01:57.168Z,96024.04
2018-04-29T00:05:20.803Z,96024.03
2018-04-29T00:08:43.660Z,96026.52
2018-04-29T00:12:06.568Z,96016.88
2018-04-29T00:15:29.421Z,96012.96
2018-04-29T00:18:52.356Z,96006.76
2018-04-29T00:22:15.286Z,96007.64
2018-04-29T00:25:38.906Z,96007.86
2018-04-29T00:29:01.763Z,96004.71
2018-04-29T00:32:24.656Z,96006.84
2018-04-29T00:35:47.536Z,95993.06
2018-04-29T00:39:10.449Z,96004.65
2018-04-29T00:42:33.292Z,96000.98
2018-04-29T00:45:56.143Z,96000.56
2018-04-29T00:49:18.980Z,95994.66
2018-04-29T00:52:41.808Z,96001.46
2018-04-29T00:56:04.711Z,95992.42
2018-04-29T00:59:28.333Z,95992.33
2018-04-29T01:02:51.188Z,95988.84
2018-04-29T01:06:14.076Z,95987.17
2018-04-29T01:09:36.963Z,95979.02
2018-04-29T01:12:59.875Z,95979.43
2018-04-29T01:16:22.722Z,95972.85
2018-04-29T01:19:45.591Z,95975.75
2018-04-29T01:23:09.936Z,95973.43
2018-04-29T01:26:32.781Z,95986.00
2018-04-29T01:29:55.654Z,95977.76
2018-04-29T01:33:19.313Z,95978.30
2018-04-29T01:36:42.938Z,95980.48
2018-04-29T01:40:05.893Z,95979.70
2018-04-29T01:43:29.497Z,95981.14
2018-04-29T01:46:52.337Z,95981.70
2018-04-29T01:50:15.193Z,95981.33
2018-04-29T01:53:38.045Z,95980.53
2018-04-29T01:57:00.893Z,95969.00
2018-04-29T02:00:23.743Z,95970.39
2018-04-29T02:03:46.594Z,95964.26
2018-04-29T02:07:09.524Z,95965.24
2018-04-29T02:10:32.430Z,95965.20
2018-04-29T02:13:55.301Z,95955.66
2018-04-29T02:17:19.067Z,95957.53
2018-04-29T02:20:41.925Z,95958.84
2018-04-29T02:24:04.838Z,95957.77
2018-04-29T02:27:27.712Z,95955.09
2018-04-29T02:30:51.324Z,95942.80
2018-04-29T02:34:14.179Z,95945.96
2018-04-29T02:37:37.049Z,95942.78
2018-04-29T02:41:00.679Z,95935.55
2018-04-29T02:44:23.555Z,95925.88
2018-04-29T02:47:47.191Z,95935.01
2018-04-29T02:51:10.097Z,95925.67
2018-04-29T02:54:32.951Z,95926.36
2018-04-29T02:57:55.805Z,95918.44
2018-04-29T03:01:19.682Z,95911.52
2018-04-29T03:04:43.296Z,95915.59
2018-04-29T03:08:06.156Z,95904.97
2018-04-29T03:11:29.008Z,95907.25
2018-04-29T03:14:51.961Z,95903.89
2018-04-29T03:18:14.838Z,95906.08
2018-04-29T03:21:37.688Z,95905.63
2018-04-29T03:25:00.539Z,95905.98
2018-04-29T03:28:23.386Z,95905.43
2018-04-29T03:31:46.224Z,95909.07
2018-04-29T03:35:09.322Z,95904.48
2018-04-29T03:38:34.019Z,95894.61
2018-04-29T03:41:56.909Z,95893.52
2018-04-29T03:45:20.532Z,95885.05
2018-04-29T03:48:43.389Z,95893.72
2018-04-29T03:52:06.236Z,95885.80
2018-04-29T03:55:29.156Z,95881.19
2018-04-29T03:59:03.849Z,95887.67
2018-04-29T04:02:38.534Z,95888.00
2018-04-29T04:06:01.392Z,95883.31
2018-04-29T04:09:24.266Z,95875.50
2018-04-29T04:12:47.158Z,95880.77
2018-04-29T04:16:10.005Z,95879.80
2018-04-29T04:19:32.948Z,95880.48
2018-04-29T04:22:56.615Z,95885.05
2018-04-29T04:26:20.224Z,95884.26
2018-04-29T04:29:43.101Z,95884.31
2018-04-29T04:33:06.015Z,95885.36
2018-04-29T04:36:28.862Z,95884.78
2018-04-29T04:39:51.784Z,95879.87
2018-04-29T04:43:14.622Z,95885.31
2018-04-29T04:46:37.460Z,95887.26
2018-04-29T04:50:00.341Z,95877.95
2018-04-29T04:53:24.015Z,95877.07
2018-04-29T04:56:46.920Z,95884.59
2018-04-29T05:00:11.573Z,95872.63
2018-04-29T05:03:35.210Z,95865.78
2018-04-29T05:06:58.162Z,95869.93
2018-04-29T05:10:21.028Z,95877.55
2018-04-29T05:13:43.929Z,95879.28
2018-04-29T05:17:07.839Z,95875.25
2018-04-29T05:20:30.750Z,95877.37
2018-04-29T05:23:53.671Z,95873.08
2018-04-29T05:27:16.586Z,95875.48
2018-04-29T05:30:39.432Z,95882.89
2018-04-29T05:34:02.273Z,95884.50
2018-04-29T05:37:25.173Z,95881.31
2018-04-29T05:40:48.098Z,95881.96
2018-04-29T05:44:10.984Z,95873.95
2018-04-29T05:47:34.632Z,95867.50
2018-04-29T05:50:57.575Z,95871.95
2018-04-29T05:54:21.206Z,95872.06
2018-04-29T06:01:47.227Z,95855.28
2018-04-29T06:05:18.348Z,95862.09
2018-04-29T06:12:30.536Z,95858.89
2018-04-29T06:15:53.483Z,95854.23
2018-04-29T06:19:42.985Z,95848.05
2018-04-29T06:30:42.385Z,95827.63
2018-04-29T06:34:36.066Z,95817.90
2018-04-29T06:38:10.728Z,95819.72
2018-04-29T06:45:09.740Z,95821.50
2018-04-29T06:48:34.329Z,95811.36
2018-04-29T06:51:58.834Z,95811.95
2018-04-29T06:55:21.768Z,95802.90
2018-04-29T06:58:44.601Z,95808.09
2018-04-29T07:02:07.444Z,95803.11
2018-04-29T07:05:30.315Z,95795.32
2018-04-29T07:08:53.257Z,95796.23
2018-04-29T07:12:16.870Z,95798.48
2018-04-29T07:15:39.730Z,95790.75
2018-04-29T07:19:02.556Z,95780.59
2018-04-29T07:22:25.429Z,95782.59
2018-04-29T07:25:48.333Z,95783.08
2018-04-29T07:29:11.214Z,95781.46
2018-04-29T07:32:34.830Z,95784.53
2018-04-29T07:35:57.710Z,95776.64
2018-04-29T07:39:21.352Z,95775.34
2018-04-29T07:42:44.265Z,95769.85
2018-04-29T07:46:07.160Z,95768.77
2018-04-29T07:49:30.022Z,95767.07
2018-04-29T07:52:52.961Z,95751.91
2018-04-29T07:56:17.321Z,95754.26
2018-04-29T07:59:40.200Z,95746.34
2018-04-29T08:03:03.089Z,95742.70
2018-04-29T08:06:26.024Z,95739.14
2018-04-29T08:09:48.907Z,95738.23
2018-04-29T08:13:11.778Z,95731.75
2018-04-29T08:16:34.694Z,95729.03
2018-04-29T08:19:57.531Z,95725.64
2018-04-29T08:23:20.402Z,95723.60
2018-04-29T08:26:43.301Z,95717.89
2018-04-29T08:30:06.187Z,95725.36
2018-04-29T08:33:29.811Z,95722.13
2018-04-29T08:36:52.661Z,95723.51
2018-04-29T08:40:15.612Z,95720.30
2018-04-29T08:43:39.454Z,95716.02
2018-04-29T08:47:03.173Z,95719.77
2018-04-29T08:54:12.493Z,95714.68
2018-04-29T08:57:44.576Z,95719.69
2018-04-29T09:01:18.023Z,95721.06
2018-04-29T09:05:13.008Z,95710.86
2018-04-29T09:08:44.991Z,95716.42
2018-04-29T09:12:07.953Z,95708.27
2018-04-29T09:15:30.836Z,95709.05
2018-04-29T09:18:53.727Z,95700.27
2018-04-29T09:22:25.410Z,95696.42
2018-04-29T09:25:48.337Z,95696.17
2018-04-29T09:29:11.640Z,95689.06
2018-04-29T09:32:34.500Z,95690.99
2018-04-29T09:35:57.410Z,95694.64
2018-04-29T09:39:20.752Z,95683.61
2018-04-29T09:42:43.720Z,95675.08
2018-04-29T09:46:07.846Z,95672.02
2018-04-29T09:49:31.504Z,95672.73
2018-04-29T09:52:54.404Z,95657.35
2018-04-29T09:56:17.349Z,95660.70
2018-04-29T09:59:40.687Z,95654.18
2018-04-29T10:03:07.816Z,95651.03
2018-04-29T10:06:31.113Z,95650.84
2018-04-29T10:10:17.431Z,95644.04
2018-04-29T10:17:24.287Z,95632.47
2018-04-29T10:20:47.177Z,95636.94
2018-04-29T10:24:11.344Z,95637.12
2018-04-29T10:27:34.345Z,95629.97
2018-04-29T10:30:57.641Z,95617.83
2018-04-29T10:34:21.224Z,95608.86
2018-04-29T10:37:45.246Z,95606.80
2018-04-29T10:41:10.224Z,95597.08
2018-04-29T10:44:34.359Z,95589.98
2018-04-29T10:47:57.693Z,95581.02
2018-04-29T10:51:21.005Z,95576.06
2018-04-29T10:54:44.643Z,95574.23
2018-04-29T10:58:08.032Z,95570.30
2018-04-29T11:02:17.906Z,95565.59
2018-04-29T11:06:05.954Z,95557.63
2018-04-29T11:09:29.525Z,95555.37
2018-04-29T11:12:52.961Z,95551.45
2018-04-29T11:16:16.308Z,95542.82
2018-04-29T11:19:39.606Z,95544.16
2018-04-29T11:23:02.972Z,95537.48
2018-04-29T11:26:26.340Z,95529.89
2018-04-29T11:29:50.396Z,95537.02
2018-04-29T11:33:13.698Z,95525.92
2018-04-29T11:36:37.044Z,95522.42
2018-04-29T11:40:00.398Z,95517.09
2018-04-29T11:43:23.749Z,95505.50
2018-04-29T11:46:47.026Z,95509.48
2018-04-29T11:50:10.359Z,95499.41
2018-04-29T11:53:34.531Z,95497.55
2018-04-29T11:56:58.555Z,95487.09
2018-04-29T12:00:21.849Z,95490.06
2018-04-29T12:03:45.216Z,95475.80
2018-04-29T12:07:08.594Z,95474.80
2018-04-29T12:10:32.733Z,95473.06
2018-04-29T12:13:56.071Z,95465.47
2018-04-29T12:17:19.433Z,95454.45
2018-04-29T12:20:42.779Z,95457.02
2018-04-29T12:24:06.109Z,95443.31
2018-04-29T12:27:30.333Z,95433.80
2018-04-29T12:30:54.613Z,95421.98
2018-04-29T12:34:18.492Z,95417.42
2018-04-29T12:37:41.924Z,95413.24
2018-04-29T12:41:06.206Z,95404.77
2018-04-29T12:44:30.676Z,95399.64
2018-04-29T12:47:53.998Z,95393.20
2018-04-29T12:51:17.613Z,95377.65
2018-04-29T12:54:42.511Z,95363.62
2018-04-29T12:58:05.845Z,95360.63
2018-04-29T13:01:29.963Z,95354.54
2018-04-29T13:04:53.247Z,95336.33
2018-04-29T13:08:16.632Z,95335.33
2018-04-29T13:11:40.000Z,95325.28
2018-04-29T13:15:05.115Z,95324.03
2018-04-29T13:18:29.223Z,95310.66
2018-04-29T13:21:52.576Z,95309.72
2018-04-29T13:25:15.798Z,95304.57
2018-04-29T13:28:39.137Z,95300.59
2018-04-29T13:32:02.445Z,95276.97
2018-04-29T13:35:29.589Z,95280.45
2018-04-29T13:38:52.935Z,95277.22
2018-04-29T13:42:16.392Z,95264.91
2018-04-29T13:45:39.661Z,95273.91
2018-04-29T13:49:03.497Z,95264.95
2018-04-29T13:52:26.897Z,95257.81
2018-04-29T13:55:50.737Z,95247.95
2018-04-29T13:59:14.054Z,95248.08
2018-04-29T14:10:32.429Z,95232.11
2018-04-29T14:13:55.786Z,95231.06
2018-04-29T14:17:25.334Z,95229.33
2018-04-29T14:20:49.060Z,95224.40
2018-04-29T14:24:11.912Z,95213.96
2018-04-29T14:27:34.776Z,95213.06
2018-04-29T14:30:57.673Z,95213.19
2018-04-29T14:34:20.521Z,95200.22
2018-04-29T14:37:43.412Z,95206.69
2018-04-29T14:44:51.790Z,95197.89
2018-04-29T14:52:15.901Z,95187.96
2018-04-29T14:55:52.258Z,95189.52
2018-04-29T14:59:22.127Z,95193.55
2018-04-29T15:02:55.450Z,95188.42
2018-04-29T15:06:20.095Z,95189.17
2018-04-29T15:09:42.955Z,95175.05
2018-04-29T15:13:05.925Z,95174.91
2018-04-29T15:16:28.977Z,95172.41
2018-04-29T15:19:52.850Z,95166.23
2018-04-29T15:23:15.928Z,95150.62
2018-04-29T15:26:38.863Z,95153.73
2018-04-29T15:30:03.839Z,95155.53
2018-04-29T15:33:27.671Z,95147.02
2018-04-29T15:36:50.680Z,95131.63
2018-04-29T15:40:15.801Z,95136.38
2018-04-29T15:43:39.540Z,95128.76
2018-04-29T15:47:04.967Z,95125.18
2018-04-29T15:50:29.008Z,95122.89
2018-04-29T15:53:54.745Z,95128.64
2018-04-29T15:57:23.001Z,95105.63
2018-04-29T16:00:45.966Z,95102.86
2018-04-29T16:07:53.628Z,95091.26
2018-04-29T16:11:17.387Z,95074.47
2018-04-29T16:14:40.242Z,95074.34
2018-04-29T16:18:03.140Z,95057.70
2018-04-29T16:21:26.014Z,95053.16
2018-04-29T16:24:48.982Z,95051.12
2018-04-29T16:32:08.011Z,95043.64
2018-04-29T16:35:31.197Z,95036.41
2018-04-29T16:38:54.065Z,95040.39
2018-04-29T16:42:17.799Z,95033.92
2018-04-29T16:45:41.440Z,95029.87
2018-04-29T16:49:04.357Z,95018.80
2018-04-29T16:52:27.289Z,95018.73
2018-04-29T16:55:51.035Z,95025.58
2018-04-29T16:59:13.970Z,95025.74
2018-04-29T17:02:36.913Z,95017.92
2018-04-29T17:05:59.840Z,95011.05
2018-04-29T17:09:22.826Z,95016.22
2018-04-29T17:12:45.679Z,95029.11
2018-04-29T17:16:08.588Z,95015.23
2018-04-29T17:19:31.440Z,95006.50
2018-04-29T17:22:54.288Z,94998.89
2018-04-29T17:26:17.266Z,94999.63
2018-04-29T17:29:41.329Z,94997.94
2018-04-29T17:33:04.558Z,94985.81
2018-04-29T17:36:27.637Z,94977.29
2018-04-29T17:39:50.555Z,94971.53
2018-04-29T17:43:13.435Z,94968.48
2018-04-29T17:46:37.049Z,94966.23
2018-04-29T17:49:59.912Z,94971.66
2018-04-29T17:53:24.388Z,94972.33
2018-04-29T17:56:49.895Z,94970.63
2018-04-29T18:00:12.859Z,94964.27
2018-04-29T18:03:35.723Z,94958.19
2018-04-29T18:06:58.583Z,94954.38
2018-04-29T18:10:21.460Z,94953.58
2018-04-29T18:13:45.088Z,94947.59
2018-04-29T18:17:08.118Z,94938.52
2018-04-29T18:20:31.016Z,94941.27
2018-04-29T18:23:54.638Z,94931.24
2018-04-29T18:27:17.494Z,94933.08
2018-04-29T18:30:40.468Z,94928.25
2018-04-29T18:34:03.362Z,94922.13
2018-04-29T18:37:27.064Z,94912.73
2018-04-29T18:40:49.958Z,94903.66
2018-04-29T18:47:55.155Z,94902.19
2018-04-29T18:51:18.140Z,94886.15
2018-04-29T18:54:41.047Z,94900.02
2018-04-29T18:58:03.922Z,94909.86
2018-04-29T19:01:26.854Z,94909.52
2018-04-29T19:04:51.274Z,94917.31
2018-04-29T19:08:14.869Z,94923.07
2018-04-29T19:11:37.857Z,94914.42
2018-04-29T19:15:00.906Z,94911.88
2018-04-29T19:18:23.888Z,94927.34
2018-04-29T19:30:43.754Z,94940.94
2018-04-29T19:34:10.584Z,94926.20
2018-04-29T19:37:49.834Z,94947.50
2018-04-29T19:41:25.585Z,94959.48
2018-04-29T19:44:48.612Z,94948.08
2018-04-29T19:48:11.539Z,94943.41
2018-04-29T19:51:36.931Z,94959.03
2018-04-29T19:55:00.567Z,94984.70
2018-04-29T19:58:23.578Z,94971.72
2018-04-29T20:01:47.403Z,94953.55
2018-04-29T20:05:10.261Z,94960.98
2018-04-29T20:08:37.385Z,94955.97
2018-04-29T20:12:00.680Z,94953.72
2018-04-29T20:15:23.557Z,94941.47
2018-04-29T20:18:48.142Z,94939.83
2018-04-29T20:22:10.990Z,94943.73
2018-04-29T20:25:34.556Z,94946.48
2018-04-29T20:28:57.423Z,94931.48
2018-04-29T20:32:33.296Z,94933.55
2018-04-29T20:35:56.946Z,94934.11
2018-04-29T20:39:20.587Z,94950.95
2018-04-29T20:42:44.212Z,94948.47
2018-04-29T20:46:07.075Z,94943.06
2018-04-29T20:49:31.444Z,94961.38
2018-04-29T20:52:55.091Z,94950.57
2018-04-29T20:56:18.025Z,94950.20
2018-04-29T20:59:41.658Z,94933.09
2018-04-29T21:03:04.556Z,94934.46
2018-04-29T21:06:28.475Z,94950.64
2018-04-29T21:09:51.349Z,94964.04
2018-04-29T21:13:14.273Z,94964.53
2018-04-29T21:16:37.114Z,94956.81
2018-04-29T21:19:59.985Z,94963.72
2018-04-29T21:23:22.891Z,94956.35
2018-04-29T21:26:45.794Z,94948.92
2018-04-29T21:30:08.696Z,94954.50
2018-04-29T21:33:32.365Z,94958.94
2018-04-29T21:36:55.241Z,94957.52
2018-04-29T21:40:18.149Z,94959.18
2018-04-29T21:43:41.015Z,94960.72
2018-04-29T21:47:05.366Z,94978.31
2018-04-29T21:50:28.214Z,94989.48
2018-04-29T21:53:51.108Z,95003.20
2018-04-29T21:57:14.783Z,95028.21
2018-04-29T22:00:37.663Z,95034.95
2018-04-29T22:04:01.288Z,95040.41
2018-04-29T22:07:24.116Z,95068.45
2018-04-29T22:10:46.969Z,95057.47
2018-04-29T22:14:10.844Z,95053.16
2018-04-29T22:17:33.737Z,95110.30
2018-04-29T22:20:57.335Z,95091.48
2018-04-29T22:24:20.183Z,95115.14
2018-04-29T22:27:43.037Z,95126.56
2018-04-29T22:31:05.894Z,95142.02
2018-04-29T22:34:28.838Z,95147.19
2018-04-29T22:37:52.629Z,95143.03
2018-04-29T22:41:16.235Z,95152.35
2018-04-29T22:44:39.092Z,95149.41
2018-04-29T22:48:01.967Z,95150.14
2018-04-29T22:51:25.723Z,95181.48
2018-04-29T22:54:48.645Z,95202.64
2018-04-29T22:58:11.635Z,95213.78
2018-04-29T23:01:34.618Z,95235.61
2018-04-29T23:04:57.485Z,95256.08
2018-04-29T23:08:20.332Z,95262.55
2018-04-29T23:11:43.191Z,95242.44
2018-04-29T23:15:06.024Z,95229.80
2018-04-29T23:18:28.903Z,95249.80
2018-04-29T23:21:52.739Z,95273.55
2018-04-29T23:25:15.597Z,95297.56
2018-04-29T23:28:38.440Z,95315.61
2018-04-29T23:32:01.323Z,95329.36
2018-04-29T23:35:25.972Z,95330.44
2018-04-29T23:38:48.792Z,95360.20
2018-04-29T23:42:12.677Z,95364.16
2018-04-29T23:45:35.532Z,95362.14
2018-04-29T23:48:59.159Z,95350.88
2018-04-29T23:52:22.021Z,95361.48
2018-04-29T23:55:44.930Z,95375.24
2018-04-29T23:59:07.778Z,95366.21
